Time;durP1;ratioP1;P1;durP2;ratioP2;P2;SDS_P1;SDS_P2;PMS_P1;PMS_P2;Temp;Humidity;BMP_temperature;BMP_pressure;BME280_temperature;BME280_humidity;BME280_pressure;Samples;Min_cycle;Max_cycle;Signal;HPM_P1;HPM_P2
2022/07/31 00:02:14;;;;;;;6.07;4.00;;;;;;;18.56;100.00;101787.28;5203994;28;20064;-72
2022/07/31 00:04:44;;;;;;;8.65;4.15;;;;;;;18.58;100.00;101790.66;5203814;28;20029;-73
2022/07/31 00:07:15;;;;;;;7.50;4.13;;;;;;;18.57;100.00;101789.81;5204221;28;20032;-72
2022/07/31 00:09:45;;;;;;;10.95;4.35;;;;;;;18.54;100.00;101790.22;5204318;28;20036;-74
2022/07/31 00:12:16;;;;;;;8.93;4.15;;;;;;;18.50;100.00;101778.03;5204146;28;20064;-72
2022/07/31 00:14:48;;;;;;;9.10;4.45;;;;;;;18.49;100.00;101770.94;5195659;28;20061;-73
2022/07/31 00:17:18;;;;;;;7.38;3.95;;;;;;;18.48;100.00;101768.44;5200290;28;20025;-73
2022/07/31 00:19:49;;;;;;;9.02;3.60;;;;;;;18.49;100.00;101778.25;5204390;28;20017;-72
2022/07/31 00:22:19;;;;;;;8.60;3.20;;;;;;;18.53;100.00;101782.25;5204575;28;20539;-73
2022/07/31 00:24:50;;;;;;;8.32;3.53;;;;;;;18.56;100.00;101781.84;5203465;28;20052;-72
2022/07/31 00:27:20;;;;;;;9.20;3.55;;;;;;;18.59;100.00;101776.03;5204202;28;20023;-73
2022/07/31 00:29:51;;;;;;;4.30;3.13;;;;;;;18.62;100.00;101786.50;5204188;28;20040;-72
2022/07/31 00:32:21;;;;;;;8.30;3.63;;;;;;;18.64;100.00;101789.88;5204205;28;20029;-72
2022/07/31 00:34:52;;;;;;;10.80;3.75;;;;;;;18.63;100.00;101788.19;5203660;28;20025;-73
2022/07/31 00:37:23;;;;;;;7.80;3.58;;;;;;;18.59;100.00;101779.59;5203519;28;20037;-74
2022/07/31 00:39:53;;;;;;;6.25;3.05;;;;;;;18.59;100.00;101776.03;5203951;28;20026;-72
2022/07/31 00:42:24;;;;;;;9.30;3.28;;;;;;;18.56;100.00;101770.97;5203889;28;20017;-73
2022/07/31 00:44:54;;;;;;;4.32;3.13;;;;;;;18.51;100.00;101771.56;5203252;28;20026;-73
2022/07/31 00:47:26;;;;;;;10.55;3.30;;;;;;;18.47;100.00;101766.72;5195806;28;20492;-73
2022/07/31 00:49:56;;;;;;;7.50;3.42;;;;;;;18.42;100.00;101764.59;5199855;28;20506;-74
2022/07/31 00:52:27;;;;;;;8.07;3.22;;;;;;;18.38;100.00;101758.72;5203803;28;20025;-74
2022/07/31 00:54:57;;;;;;;5.85;3.42;;;;;;;18.37;100.00;101756.19;5201950;28;20032;-73
2022/07/31 00:57:28;;;;;;;8.93;3.25;;;;;;;18.34;100.00;101754.72;5200515;28;20064;-73
2022/07/31 00:59:58;;;;;;;4.90;3.13;;;;;;;18.35;100.00;101753.69;5203503;28;20033;-73
2022/07/31 01:02:29;;;;;;;4.22;2.63;;;;;;;18.36;100.00;101755.34;5201533;28;20320;-73
2022/07/31 01:05:00;;;;;;;6.95;3.03;;;;;;;18.36;100.00;101749.09;5203374;28;20088;-71
2022/07/31 01:07:45;;;;;;;6.57;2.83;;;;;;;18.37;100.00;101757.06;5203693;28;20029;-72
2022/07/31 01:10:27;;;;;;;7.20;3.13;;;;;;;18.40;100.00;101747.66;5203556;28;20021;-73
2022/07/31 01:13:04;;;;;;;7.20;2.72;;;;;;;18.41;100.00;101743.06;5203396;28;20029;-73
2022/07/31 01:15:37;;;;;;;5.40;2.40;;;;;;;18.38;100.00;101745.16;5202940;28;20029;-73
2022/07/31 01:18:10;;;;;;;7.03;2.97;;;;;;;18.37;100.00;101735.31;5203631;28;20029;-73
2022/07/31 01:20:43;;;;;;;9.95;2.70;;;;;;;18.41;100.00;101743.91;5203673;28;20048;-71
2022/07/31 01:23:33;;;;;;;5.43;2.28;;;;;;;18.43;100.00;101751.88;5203209;28;20025;-72
2022/07/31 01:26:12;;;;;;;4.15;1.90;;;;;;;18.44;100.00;101759.81;5191802;28;20504;-72
2022/07/31 01:29:02;;;;;;;4.00;2.45;;;;;;;18.44;100.00;101751.66;5203185;28;20578;-73
2022/07/31 01:31:38;;;;;;;14.27;3.63;;;;;;;18.46;100.00;101759.63;5202994;28;20033;-73
2022/07/31 01:34:20;;;;;;;3.75;2.38;;;;;;;18.44;100.00;101762.53;5203148;28;20022;-73
2022/07/31 01:37:11;;;;;;;7.90;2.42;;;;;;;18.41;100.00;101751.22;5203153;28;20034;-72
2022/07/31 01:39:48;;;;;;;5.40;2.17;;;;;;;18.36;100.00;101755.34;5202893;28;20028;-72
2022/07/31 01:42:20;;;;;;;5.07;2.00;;;;;;;18.33;100.00;101754.91;5203598;28;20025;-74
2022/07/31 01:44:55;;;;;;;3.08;1.83;;;;;;;18.31;100.00;101756.97;5202590;28;20052;-72
2022/07/31 01:47:28;;;;;;;4.30;2.10;;;;;;;18.27;100.00;101761.97;5196361;28;20103;-72
2022/07/31 01:50:01;;;;;;;2.65;2.33;;;;;;;18.23;100.00;101757.97;5200999;28;20018;-73
2022/07/31 01:52:33;;;;;;;5.05;2.17;;;;;;;18.22;100.00;101756.25;5202920;28;20037;-72
2022/07/31 01:55:04;;;;;;;3.95;1.90;;;;;;;18.19;100.00;101753.94;5202538;28;20026;-71
2022/07/31 01:57:40;;;;;;;2.85;2.33;;;;;;;18.20;100.00;101755.63;5200055;28;20034;-72
2022/07/31 02:00:13;;;;;;;4.45;2.50;;;;;;;18.19;100.00;101753.13;5203159;28;20100;-72
2022/07/31 02:02:46;;;;;;;4.20;2.53;;;;;;;18.19;100.00;101748.53;5201321;28;20029;-72
2022/07/31 02:05:36;;;;;;;9.02;2.30;;;;;;;18.19;100.00;101744.97;5202384;28;20617;-72
2022/07/31 02:08:09;;;;;;;7.55;2.33;;;;;;;18.19;100.00;101740.38;5203108;28;20026;-73
2022/07/31 02:10:44;;;;;;;3.00;2.38;;;;;;;18.20;100.00;101739.34;5203107;28;20097;-73
2022/07/31 02:13:16;;;;;;;5.70;2.15;;;;;;;18.20;100.00;101736.63;5205217;28;20490;-73
2022/07/31 02:15:48;;;;;;;5.75;2.20;;;;;;;18.20;100.00;101735.78;5206301;28;20036;-72
2022/07/31 02:18:20;;;;;;;6.10;2.60;;;;;;;18.19;100.00;101734.09;5207087;28;20502;-73
2022/07/31 02:20:52;;;;;;;5.53;2.30;;;;;;;18.19;100.00;101734.94;5207105;28;20025;-72
2022/07/31 02:23:22;;;;;;;10.13;2.78;;;;;;;18.17;100.00;101736.16;5206898;28;20053;-72
2022/07/31 02:25:53;;;;;;;4.93;2.22;;;;;;;18.17;100.00;101731.56;5205998;28;20075;-72
2022/07/31 02:28:25;;;;;;;7.35;2.45;;;;;;;18.16;100.00;101732.59;5206514;28;20030;-73
2022/07/31 02:30:56;;;;;;;3.85;2.10;;;;;;;18.15;100.00;101736.34;5207032;28;20087;-72
2022/07/31 02:33:27;;;;;;;5.03;2.25;;;;;;;18.13;100.00;101730.28;5206238;28;20537;-73
2022/07/31 02:36:00;;;;;;;3.25;2.17;;;;;;;18.14;100.00;101728.41;5206185;28;20033;-72
2022/07/31 02:38:32;;;;;;;4.50;2.00;;;;;;;18.11;100.00;101729.63;5206468;28;20032;-71
2022/07/31 02:41:04;;;;;;;4.60;2.50;;;;;;;18.09;100.00;101721.69;5206758;28;20103;-73
2022/07/31 02:43:35;;;;;;;3.60;2.40;;;;;;;18.08;100.00;101730.03;5206413;28;20036;-73
2022/07/31 02:46:07;;;;;;;3.70;2.20;;;;;;;18.06;100.00;101723.94;5206218;28;20506;-72
2022/07/31 02:48:39;;;;;;;5.88;2.53;;;;;;;18.06;100.00;101719.34;5196527;28;20108;-72
2022/07/31 02:51:09;;;;;;;4.47;2.58;;;;;;;18.04;100.00;101721.44;5206896;28;20399;-72
2022/07/31 02:53:40;;;;;;;6.53;2.45;;;;;;;18.04;100.00;101717.88;5206214;28;20026;-72
2022/07/31 02:56:12;;;;;;;8.63;2.42;;;;;;;18.04;100.00;101710.56;5202645;28;20060;-73
2022/07/31 02:58:42;;;;;;;6.25;2.28;;;;;;;18.01;100.00;101707.41;5206195;28;20447;-72
2022/07/31 03:01:13;;;;;;;4.47;2.20;;;;;;;18.02;100.00;101709.06;5206010;28;20041;-73
2022/07/31 03:03:43;;;;;;;3.28;2.28;;;;;;;17.99;100.00;101718.47;5204192;28;20021;-72
2022/07/31 03:06:15;;;;;;;5.70;2.72;;;;;;;17.99;100.00;101706.75;5205652;28;20013;-71
2022/07/31 03:08:45;;;;;;;2.95;1.90;;;;;;;17.97;100.00;101706.09;5206026;28;20087;-73
2022/07/31 03:11:16;;;;;;;5.40;2.20;;;;;;;17.95;100.00;101698.16;5206039;28;20033;-73
2022/07/31 03:13:47;;;;;;;4.38;2.10;;;;;;;17.95;100.00;101703.59;5205404;28;20188;-73
2022/07/31 03:16:18;;;;;;;9.73;2.38;;;;;;;17.94;100.00;101707.34;5205511;28;20068;-74
2022/07/31 03:18:51;;;;;;;3.70;2.17;;;;;;;17.94;100.00;101695.66;5204819;28;20022;-73
2022/07/31 03:21:23;;;;;;;5.22;2.70;;;;;;;17.94;100.00;101707.34;5205822;28;20025;-74
2022/07/31 03:23:54;;;;;;;3.92;1.85;;;;;;;17.95;100.00;101702.75;5205386;28;20034;-73
2022/07/31 03:26:25;;;;;;;5.88;2.28;;;;;;;17.96;100.00;101699.00;5205334;28;20075;-74
2022/07/31 03:28:55;;;;;;;4.53;2.47;;;;;;;17.94;100.00;101695.66;5205635;28;20032;-73
2022/07/31 03:31:26;;;;;;;4.43;2.00;;;;;;;17.94;100.00;101703.78;5205692;28;20033;-72
2022/07/31 03:33:56;;;;;;;6.65;2.05;;;;;;;17.94;100.00;101703.78;5205300;28;20030;-72
2022/07/31 03:36:28;;;;;;;7.65;3.00;;;;;;;17.93;100.00;101693.97;5204263;28;20026;-74
2022/07/31 03:38:58;;;;;;;5.88;2.20;;;;;;;17.91;100.00;101698.75;5205441;28;20487;-74
2022/07/31 03:41:30;;;;;;;8.75;2.70;;;;;;;17.91;100.00;101691.44;5205478;28;20112;-74
2022/07/31 03:44:01;;;;;;;5.30;2.45;;;;;;;17.93;100.00;101691.25;5205774;28;20379;-73
2022/07/31 03:46:32;;;;;;;3.15;2.10;;;;;;;17.94;100.00;101692.94;5204656;28;20557;-73
2022/07/31 03:49:04;;;;;;;7.43;2.55;;;;;;;17.95;100.00;101697.31;5204805;28;20111;-72
2022/07/31 03:51:35;;;;;;;6.28;2.42;;;;;;;17.95;100.00;101702.75;5204064;28;20027;-74
2022/07/31 03:54:05;;;;;;;4.53;2.15;;;;;;;17.96;100.00;101705.25;5205326;28;20025;-72
2022/07/31 03:56:39;;;;;;;2.88;2.00;;;;;;;17.97;100.00;101704.25;5201953;28;20025;-72
2022/07/31 03:59:09;;;;;;;8.55;3.17;;;;;;;17.99;100.00;101712.19;5205014;28;20029;-73
2022/07/31 04:01:41;;;;;;;4.47;2.60;;;;;;;17.98;100.00;101713.25;5205662;28;20031;-73
2022/07/31 04:04:12;;;;;;;7.30;2.08;;;;;;;17.98;100.00;101714.06;5202772;28;20017;-73
2022/07/31 04:06:43;;;;;;;5.68;2.63;;;;;;;17.99;100.00;101701.34;5205866;28;20475;-74
2022/07/31 04:09:13;;;;;;;3.05;2.20;;;;;;;17.98;100.00;101705.09;5205690;28;20033;-74
2022/07/31 04:11:44;;;;;;;5.50;2.25;;;;;;;17.97;100.00;101708.81;5204796;28;20025;-73
2022/07/31 04:14:14;;;;;;;4.43;2.10;;;;;;;17.98;100.00;101702.38;5202708;28;20502;-75
2022/07/31 04:16:45;;;;;;;5.47;2.38;;;;;;;17.96;100.00;101713.41;5204943;28;20075;-74
2022/07/31 04:19:15;;;;;;;4.05;2.42;;;;;;;17.94;100.00;101718.19;5204822;28;20112;-75
2022/07/31 04:21:46;;;;;;;5.65;1.98;;;;;;;17.95;100.00;101714.44;5204624;28;20541;-74
2022/07/31 04:24:17;;;;;;;4.10;2.65;;;;;;;17.94;100.00;101711.94;5202515;28;20045;-74
2022/07/31 04:26:48;;;;;;;7.22;2.92;;;;;;;17.93;100.00;101702.13;5204500;28;20041;-74
2022/07/31 04:29:19;;;;;;;5.75;2.33;;;;;;;17.91;100.00;101707.72;5204694;28;20113;-74
2022/07/31 04:31:49;;;;;;;3.60;2.20;;;;;;;17.91;100.00;101704.16;5204123;28;20032;-74
2022/07/31 04:34:20;;;;;;;4.07;2.40;;;;;;;17.91;100.00;101704.16;5203594;28;20057;-74
2022/07/31 04:36:51;;;;;;;4.40;2.20;;;;;;;17.93;100.00;101715.69;5202215;28;20073;-75
2022/07/31 04:39:21;;;;;;;4.43;2.40;;;;;;;17.93;100.00;101710.25;5204777;28;20029;-73
2022/07/31 04:41:52;;;;;;;5.68;2.72;;;;;;;17.94;100.00;101711.94;5204290;28;20026;-72
2022/07/31 04:44:22;;;;;;;3.78;2.50;;;;;;;17.95;100.00;101711.72;5203961;28;20033;-73
2022/07/31 04:46:58;;;;;;;5.25;2.70;;;;;;;17.94;100.00;101712.78;5201527;28;20052;-73
2022/07/31 04:49:29;;;;;;;;;;;;;;;17.94;100.00;101712.78;5197795;28;20116;-74
2022/07/31 04:52:00;;;;;;;8.15;2.67;;;;;;;17.96;100.00;101720.72;5204199;28;19908;-75
2022/07/31 04:54:31;;;;;;;6.57;2.70;;;;;;;17.95;100.00;101706.31;5203529;28;20072;-71
2022/07/31 04:57:02;;;;;;;8.63;2.90;;;;;;;17.95;100.00;101708.19;5200961;28;20029;-71
2022/07/31 04:59:32;;;;;;;6.85;2.72;;;;;;;17.98;100.00;101700.50;5204299;28;20100;-71
2022/07/31 05:02:03;;;;;;;6.00;2.80;;;;;;;18.00;100.00;101701.13;5203842;28;20469;-72
2022/07/31 05:04:33;;;;;;;5.70;3.17;;;;;;;18.06;100.00;101704.94;5201664;28;20025;-72
2022/07/31 05:07:04;;;;;;;7.22;3.03;;;;;;;18.12;100.00;101704.16;5204238;28;20024;-71
2022/07/31 05:09:34;;;;;;;7.30;2.60;;;;;;;18.13;100.00;101692.28;5203672;28;20026;-71
2022/07/31 05:12:05;;;;;;;9.23;2.70;;;;;;;18.14;100.00;101704.81;5203861;28;20064;-71
2022/07/31 05:14:35;;;;;;;8.50;2.92;;;;;;;18.17;100.00;101703.56;5203009;28;20044;-71
2022/07/31 05:17:06;;;;;;;4.93;2.47;;;;;;;18.25;100.00;101701.56;5203681;28;20087;-71
2022/07/31 05:19:37;;;;;;;5.10;2.30;;;;;;;18.30;100.00;101699.09;5189292;28;20022;-71
2022/07/31 05:22:07;;;;;;;7.35;2.45;;;;;;;18.31;100.00;101705.38;5197115;28;20065;-71
2022/07/31 05:24:37;;;;;;;6.32;2.97;;;;;;;18.36;100.00;101694.75;5201193;28;20066;-71
2022/07/31 05:27:09;;;;;;;5.65;2.78;;;;;;;18.40;100.00;101689.78;5201459;28;20079;-71
2022/07/31 05:29:39;;;;;;;4.22;2.42;;;;;;;18.38;100.00;101687.25;5201547;28;20612;-71
2022/07/31 05:32:09;;;;;;;9.18;2.75;;;;;;;18.40;100.00;101684.34;5201308;28;20029;-71
2022/07/31 05:34:40;;;;;;;7.22;2.95;;;;;;;18.43;100.00;101694.81;5201079;28;20038;-71
2022/07/31 05:37:11;;;;;;;5.70;2.67;;;;;;;18.44;100.00;101699.22;5201450;28;20026;-71
2022/07/31 05:39:41;;;;;;;7.80;2.72;;;;;;;18.45;100.00;101698.16;5201043;28;20407;-71
2022/07/31 05:42:12;;;;;;;6.65;3.22;;;;;;;18.49;100.00;101696.75;5201816;28;20030;-71
2022/07/31 05:44:42;;;;;;;4.25;2.80;;;;;;;18.52;100.00;101708.03;5201079;28;20030;-71
2022/07/31 05:47:13;;;;;;;5.72;2.67;;;;;;;18.54;100.00;101708.69;5194347;28;20018;-71
2022/07/31 05:49:43;;;;;;;4.72;3.00;;;;;;;18.59;100.00;101708.09;5196633;28;20029;-71
2022/07/31 05:52:16;;;;;;;4.25;2.75;;;;;;;18.63;100.00;101718.38;5201488;28;20112;-71
2022/07/31 05:54:47;;;;;;;6.03;3.08;;;;;;;18.69;100.00;101708.63;5201343;28;20572;-71
2022/07/31 05:57:17;;;;;;;7.68;2.95;;;;;;;18.69;100.00;101710.50;5197958;28;20021;-71
2022/07/31 05:59:48;;;;;;;7.65;3.08;;;;;;;18.72;100.00;101710.09;5201236;28;20542;-71
2022/07/31 06:02:19;;;;;;;6.38;2.85;;;;;;;18.79;100.00;101708.28;5199769;28;20116;-71
2022/07/31 06:04:49;;;;;;;4.13;3.10;;;;;;;18.86;100.00;101706.41;5200376;28;20037;-71
2022/07/31 06:07:19;;;;;;;5.47;2.95;;;;;;;18.92;100.00;101707.50;5201348;28;20483;-71
2022/07/31 06:09:50;;;;;;;6.45;3.38;;;;;;;18.95;100.00;101705.22;5200997;28;20029;-71
2022/07/31 06:12:20;;;;;;;6.43;3.60;;;;;;;18.95;100.00;101698.94;5201622;28;20240;-71
2022/07/31 06:14:51;;;;;;;6.88;3.20;;;;;;;18.95;100.00;101704.38;5200606;28;20030;-71
2022/07/31 06:17:21;;;;;;;4.47;2.80;;;;;;;19.00;100.00;101701.91;5202013;28;20064;-71
2022/07/31 06:19:52;;;;;;;7.75;3.83;;;;;;;19.04;100.00;101697.75;5202745;28;20116;-71
2022/07/31 06:22:22;;;;;;;5.88;3.58;;;;;;;19.06;100.00;101688.31;5201575;28;20446;-71
2022/07/31 06:24:53;;;;;;;7.00;3.30;;;;;;;19.06;100.00;101690.22;5202477;28;20028;-71
2022/07/31 06:27:23;;;;;;;7.88;3.70;;;;;;;19.13;100.00;101701.97;5202495;28;20570;-71
2022/07/31 06:29:56;;;;;;;8.02;3.45;;;;;;;19.18;100.00;101702.22;5202476;28;20033;-71
2022/07/31 06:32:27;;;;;;;5.70;3.13;;;;;;;19.28;100.00;101696.41;5202413;28;20021;-71
2022/07/31 06:34:57;;;;;;;8.20;3.92;;;;;;;19.40;100.00;101692.03;5201921;28;20032;-71
2022/07/31 06:37:28;;;;;;;6.45;3.70;;;;;;;19.45;100.00;101700.44;5202647;28;20487;-71
2022/07/31 06:39:59;;;;;;;8.35;4.13;;;;;;;19.57;100.00;101703.38;5202787;28;20029;-71
2022/07/31 06:42:29;;;;;;;7.07;3.25;;;;;;;19.65;100.00;101705.97;5202671;28;20025;-71
2022/07/31 06:44:59;;;;;;;10.63;3.38;;;;;;;19.66;100.00;101713.06;5202035;28;20033;-71
2022/07/31 06:47:30;;;;;;;6.45;3.58;;;;;;;19.78;100.00;101718.75;5194942;28;20089;-71
2022/07/31 06:50:02;;;;;;;11.20;3.67;;;;;;;19.79;100.00;101710.41;5200493;28;20120;-71
2022/07/31 06:52:32;;;;;;;7.43;4.00;;;;;;;19.84;100.00;101709.78;5202131;28;20554;-71
2022/07/31 06:55:03;;;;;;;6.82;4.07;;;;;;;19.87;100.00;101706.63;5201763;28;20108;-71
2022/07/31 06:57:34;;;;;;;7.00;3.38;;;;;;;20.04;100.00;101705.19;5199208;28;20152;-72
2022/07/31 07:00:05;;;;;;;7.53;4.13;;;;;;;20.24;100.00;101697.03;5204504;28;20104;-71
2022/07/31 07:02:36;;;;;;;11.93;4.07;;;;;;;20.51;100.00;101689.69;5202945;28;20372;-72
2022/07/31 07:05:07;;;;;;;8.35;3.92;;;;;;;21.01;100.00;101695.47;5205671;28;20033;-72
2022/07/31 07:07:38;;;;;;;8.30;4.10;;;;;;;21.20;100.00;101699.19;5206063;28;20694;-72
2022/07/31 07:10:08;;;;;;;5.50;3.70;;;;;;;21.42;100.00;101691.56;5206212;28;20029;-72
2022/07/31 07:12:39;;;;;;;6.95;3.90;;;;;;;21.58;100.00;101682.84;5205907;28;20022;-71
2022/07/31 07:15:09;;;;;;;18.27;4.32;;;;;;;21.76;100.00;101682.13;5205336;28;20022;-72
2022/07/31 07:17:40;;;;;;;8.77;4.03;;;;;;;21.50;100.00;101691.31;5205619;28;20024;-72
2022/07/31 07:20:12;;;;;;;12.02;4.20;;;;;;;21.41;100.00;101688.00;5205586;28;20021;-72
2022/07/31 07:22:43;;;;;;;9.45;4.13;;;;;;;21.35;100.00;101693.50;5192688;28;20163;-72
2022/07/31 07:25:13;;;;;;;7.65;4.00;;;;;;;21.44;100.00;101689.47;5204923;28;20483;-72
2022/07/31 07:27:44;;;;;;;7.50;4.25;;;;;;;21.48;100.00;101687.94;5205020;28;20029;-72
2022/07/31 07:30:14;;;;;;;9.90;3.90;;;;;;;21.42;100.00;101686.94;5204919;28;20293;-72
2022/07/31 07:32:45;;;;;;;8.13;3.72;;;;;;;21.40;100.00;101678.13;5205677;28;20021;-72
2022/07/31 07:35:15;;;;;;;9.20;3.60;;;;;;;21.46;100.00;101685.44;5204875;28;20056;-72
2022/07/31 07:37:47;;;;;;;5.95;3.78;;;;;;;21.77;100.00;101672.88;5205487;28;20152;-72
2022/07/31 07:40:17;;;;;;;6.45;3.92;;;;;;;22.03;100.00;101669.09;5204960;28;20021;-72
2022/07/31 07:42:48;;;;;;;10.10;3.88;;;;;;;21.90;100.00;101680.13;5205278;28;20029;-72
2022/07/31 07:45:18;;;;;;;11.45;4.18;;;;;;;22.28;100.00;101679.22;5204593;28;20373;-72
2022/07/31 07:47:49;;;;;;;5.55;3.65;;;;;;;22.46;100.00;101682.00;5195287;28;20025;-72
2022/07/31 07:50:19;;;;;;;7.60;4.20;;;;;;;22.46;100.00;101682.84;5205693;28;20026;-72
2022/07/31 07:52:50;;;;;;;6.68;3.80;;;;;;;22.38;100.00;101679.56;5204646;28;20025;-72
2022/07/31 07:55:21;;;;;;;11.88;4.18;;;;;;;22.56;100.00;101678.75;5204543;28;20450;-72
2022/07/31 07:57:51;;;;;;;11.73;4.32;;;;;;;22.98;100.00;101677.06;5201293;28;20041;-72
2022/07/31 08:00:22;;;;;;;7.05;3.63;;;;;;;23.88;100.00;101681.78;5205090;28;20029;-72
2022/07/31 08:02:52;;;;;;;10.07;3.95;;;;;;;25.17;100.00;101682.66;5203025;28;20100;-72
2022/07/31 08:05:22;;;;;;;10.40;3.58;;;;;;;25.70;100.00;101678.72;5203752;28;20029;-72
2022/07/31 08:07:53;;;;;;;8.88;4.03;;;;;;;24.89;100.00;101686.13;5204663;28;20360;-73
2022/07/31 08:10:24;;;;;;;6.85;3.70;;;;;;;24.07;100.00;101696.25;5204606;28;20057;-73
2022/07/31 08:12:54;;;;;;;13.27;4.78;;;;;;;23.75;100.00;101691.03;5204719;28;20052;-72
2022/07/31 08:15:25;;;;;;;9.18;4.25;;;;;;;23.18;100.00;101680.38;5204057;28;20025;-72
2022/07/31 08:17:55;;;;;;;5.93;3.90;;;;;;;23.50;100.00;101678.31;5204380;28;20021;-72
2022/07/31 08:20:26;;;;;;;5.72;3.65;;;;;;;23.45;100.00;101671.84;5204325;28;20033;-72
2022/07/31 08:22:56;;;;;;;9.38;4.28;;;;;;;23.20;100.00;101683.75;5204597;28;20556;-72
2022/07/31 08:25:27;;;;;;;7.70;4.05;;;;;;;22.91;100.00;101676.31;5203829;28;20108;-72
2022/07/31 08:27:57;;;;;;;6.35;3.95;;;;;;;22.59;100.00;101670.09;5204150;28;20030;-72
2022/07/31 08:30:28;;;;;;;6.93;4.20;;;;;;;22.75;100.00;101669.53;5203706;28;20391;-72
2022/07/31 08:32:58;;;;;;;6.60;3.92;;;;;;;22.84;100.00;101670.91;5204644;28;20025;-72
2022/07/31 08:35:29;;;;;;;7.38;3.90;;;;;;;23.31;100.00;101668.44;5203768;28;20038;-73
2022/07/31 08:37:59;;;;;;;9.75;3.72;;;;;;;24.09;100.00;101674.91;5204688;28;20109;-72
2022/07/31 08:40:30;;;;;;;5.43;3.60;;;;;;;24.75;100.00;101680.09;5204153;28;20411;-73
2022/07/31 08:43:01;;;;;;;6.07;3.58;;;;;;;24.85;100.00;101690.47;5203914;28;20413;-72
2022/07/31 08:45:36;;;;;;;7.65;4.00;;;;;;;24.27;100.00;101680.28;5203458;28;20063;-72
2022/07/31 08:48:07;;;;;;;5.05;3.70;;;;;;;24.12;100.00;101682.66;5194317;28;20134;-72
2022/07/31 08:50:39;;;;;;;10.60;4.28;;;;;;;23.82;100.00;101682.72;5204174;28;20025;-72
2022/07/31 08:53:13;;;;;;;7.32;3.53;;;;;;;24.32;100.00;101685.91;5203339;28;20026;-72
2022/07/31 08:55:44;;;;;;;7.72;3.40;;;;;;;25.04;100.00;101686.47;5201221;28;20056;-73
2022/07/31 08:58:17;;;;;;;9.38;3.38;;;;;;;25.18;100.00;101678.00;5202311;28;20029;-73
2022/07/31 09:00:48;;;;;;;7.05;3.33;;;;;;;25.46;100.00;101669.78;5203590;28;20045;-71
2022/07/31 09:03:19;;;;;;;5.00;3.65;;;;;;;25.58;100.00;101675.19;5202330;28;20036;-71
2022/07/31 09:05:49;;;;;;;5.60;3.63;;;;;;;25.40;100.00;101667.16;5202638;28;20018;-70
2022/07/31 09:08:20;;;;;;;9.65;3.83;;;;;;;25.18;100.00;101672.50;5203494;28;20495;-71
2022/07/31 09:11:03;;;;;;;7.03;3.80;;;;;;;25.28;100.00;101672.69;5203538;28;20112;-71
2022/07/31 09:13:33;;;;;;;6.53;3.47;;;;;;;25.12;100.00;101662.50;5203664;28;20032;-71
2022/07/31 09:16:05;;;;;;;7.28;3.80;;;;;;;25.15;100.00;101667.47;5202457;28;20491;-71
2022/07/31 09:18:36;;;;;;;6.55;3.53;;;;;;;25.75;100.00;101661.50;5203305;28;20549;-70
2022/07/31 09:21:06;;;;;;;4.68;3.10;;;;;;;26.84;100.00;101653.59;5203580;28;20021;-73
2022/07/31 09:23:54;;;;;;;5.47;3.75;;;;;;;27.27;100.00;101664.91;5202820;28;20033;-73
2022/07/31 09:26:33;;;;;;;6.93;3.60;;;;;;;27.48;100.00;101668.72;5202557;28;20025;-71
2022/07/31 09:29:07;;;;;;;4.65;2.83;;;;;;;27.10;100.00;101668.56;5202804;28;20029;-71
2022/07/31 09:31:38;;;;;;;8.30;3.83;;;;;;;26.38;100.00;101656.78;5203538;28;20040;-73
2022/07/31 09:34:08;;;;;;;5.93;3.65;;;;;;;26.11;100.00;101651.16;5202612;28;20098;-73
2022/07/31 09:36:39;;;;;;;9.02;3.03;;;;;;;26.31;100.00;101649.53;5203334;28;20172;-73
2022/07/31 09:39:25;;;;;;;6.70;3.28;;;;;;;26.45;100.00;101658.28;5202696;28;20036;-73
2022/07/31 09:41:56;;;;;;;6.15;3.25;;;;;;;26.40;100.00;101662.84;5203423;28;20029;-72
2022/07/31 09:44:39;;;;;;;6.75;3.40;;;;;;;26.27;100.00;101664.88;5202483;28;20391;-73
2022/07/31 09:47:22;;;;;;;5.32;3.15;;;;;;;26.48;100.00;101655.03;5186151;28;20022;-73
2022/07/31 09:49:55;;;;;;;5.25;3.47;;;;;;;26.50;100.00;101665.78;5199963;28;20021;-73
2022/07/31 09:52:28;;;;;;;4.10;3.70;;;;;;;26.46;100.00;101659.97;5203085;28;20025;-71
2022/07/31 09:55:12;;;;;;;5.60;3.58;;;;;;;26.59;100.00;101661.53;5202384;28;20075;-71
2022/07/31 09:57:59;;;;;;;6.03;3.33;;;;;;;26.32;100.00;101662.22;5199196;28;20103;-71
2022/07/31 10:00:30;;;;;;;6.80;4.00;;;;;;;25.83;100.00;101656.47;5202896;28;20026;-71
2022/07/31 10:03:01;;;;;;;6.97;4.03;;;;;;;25.39;100.00;101652.59;5201250;28;20549;-71
2022/07/31 10:05:33;;;;;;;8.45;3.78;;;;;;;25.48;100.00;101656.63;5202446;28;20083;-71
2022/07/31 10:08:04;;;;;;;6.60;3.40;;;;;;;25.66;100.00;101654.75;5202290;28;20048;-71
2022/07/31 10:10:36;;;;;;;5.88;3.80;;;;;;;25.69;100.00;101652.31;5202408;28;20033;-71
2022/07/31 10:13:09;;;;;;;11.02;4.75;;;;;;;26.04;100.00;101652.13;5203003;28;20434;-73
2022/07/31 10:15:41;;;;;;;7.43;4.43;;;;;;;25.72;100.00;101654.59;5202310;28;20116;-73
2022/07/31 10:18:14;;;;;;;6.60;3.92;;;;;;;25.87;100.00;101653.22;5202881;28;20025;-73
2022/07/31 10:20:51;;;;;;;8.15;3.85;;;;;;;26.11;100.00;101646.47;5202047;28;20072;-73
2022/07/31 10:23:26;;;;;;;5.40;3.28;;;;;;;26.19;100.00;101653.47;5202670;28;20022;-73
2022/07/31 10:25:59;;;;;;;5.82;4.10;;;;;;;25.99;100.00;101651.22;5202030;28;20022;-73
2022/07/31 10:28:31;;;;;;;7.97;3.90;;;;;;;25.93;100.00;101652.22;5202265;28;20112;-73
2022/07/31 10:31:02;;;;;;;9.07;4.20;;;;;;;25.72;100.00;101649.09;5202914;28;20039;-73
2022/07/31 10:33:33;;;;;;;7.50;3.50;;;;;;;25.58;100.00;101645.81;5202378;28;20022;-73
2022/07/31 10:36:10;;;;;;;7.95;4.30;;;;;;;25.61;100.00;101643.66;5205676;28;20025;-73
2022/07/31 10:38:49;;;;;;;8.38;4.25;;;;;;;25.76;100.00;101638.47;5206395;28;20056;-73
2022/07/31 10:41:44;;;;;;;5.38;3.97;;;;;;;25.96;100.00;101641.56;5206192;28;20057;-72
2022/07/31 10:44:18;;;;;;;7.30;4.10;;;;;;;26.09;100.00;101641.22;5204459;28;20112;-73
2022/07/31 10:46:48;;;;;;;14.25;4.25;;;;;;;26.14;100.00;101642.38;5204190;28;20096;-72
2022/07/31 10:49:36;;;;;;;7.25;3.83;;;;;;;26.07;100.00;101639.81;5198558;28;20021;-73
2022/07/31 10:52:07;;;;;;;4.05;3.50;;;;;;;25.89;100.00;101645.53;5206038;28;20029;-73
2022/07/31 10:54:41;;;;;;;7.82;4.35;;;;;;;25.76;100.00;101635.72;5205625;28;20018;-73
2022/07/31 10:57:25;;;;;;;10.52;4.20;;;;;;;26.09;100.00;101637.63;5202979;28;20075;-72
2022/07/31 11:00:07;;;;;;;5.95;3.88;;;;;;;26.19;100.00;101643.28;5205936;28;20386;-73
2022/07/31 11:02:38;;;;;;;6.38;4.00;;;;;;;25.73;100.00;101639.75;5205082;28;20094;-73
2022/07/31 11:05:13;;;;;;;4.95;3.75;;;;;;;25.89;100.00;101634.56;5205853;28;20029;-73
2022/07/31 11:07:44;;;;;;;6.20;3.75;;;;;;;26.09;100.00;101629.38;5206262;28;20066;-73
2022/07/31 11:10:19;;;;;;;5.10;3.63;;;;;;;25.86;100.00;101624.91;5205911;28;20029;-72
2022/07/31 11:13:03;;;;;;;6.97;4.00;;;;;;;25.64;100.00;101627.50;5205549;28;20094;-73
2022/07/31 11:15:36;;;;;;;5.90;4.10;;;;;;;25.67;100.00;101627.03;5205087;28;20383;-73
2022/07/31 11:18:25;;;;;;;7.80;4.10;;;;;;;25.86;100.00;101632.31;5205950;28;20118;-73
2022/07/31 11:21:13;;;;;;;6.95;3.75;;;;;;;26.00;100.00;101626.22;5205983;28;20025;-71
2022/07/31 11:23:44;;;;;;;6.65;3.85;;;;;;;25.68;100.00;101625.94;5205780;28;20060;-71
2022/07/31 11:26:16;;;;;;;5.50;3.05;;;;;;;25.89;100.00;101620.81;5205198;28;20506;-74
2022/07/31 11:28:47;;;;;;;6.22;3.47;;;;;;;26.12;100.00;101628.06;5205245;28;20052;-73
2022/07/31 11:31:18;;;;;;;8.45;3.60;;;;;;;26.06;100.00;101633.47;5205516;28;20602;-73
2022/07/31 11:33:48;;;;;;;8.52;3.70;;;;;;;25.70;100.00;101626.50;5198206;28;20026;-73
2022/07/31 11:36:23;;;;;;;6.60;3.30;;;;;;;25.66;100.00;101630.03;5188944;28;20034;-73
2022/07/31 11:38:55;;;;;;;6.97;3.53;;;;;;;25.43;100.00;101636.47;5190875;28;20184;-73
2022/07/31 11:41:28;;;;;;;5.13;3.00;;;;;;;25.19;100.00;101625.56;5203736;28;20033;-72